EZY14XA EGCC-LPPR
Flight info
| Callsign | EZY14XA |
|---|---|
| Flight time | N/A |
| Altitude | 38000 |
| Route | ASMIM DCT NOKIN P17 BEPHE/N0442F380 DCT OSSEP DCT ELNIF DCT ZESPE DCT DAWLY DCT BHD DCT SALCO/N0442F370 DCT IBISU DCT LOTEE DCT ELTEP/N0364F230 T328 ASPOR |
| Aircraft | A319/M-SDE3FGHIRWY/LB1 |
Departure
| Time | 2026-05-04 14:25 |
|---|---|
| Airport | Manchester Airport (EGCC) |
Arrival
| Time | N/A |
|---|---|
| Airport | Francisco de Sá Carneiro Airport (LPPR) |
| Time | Latitude | Longitude | Altitude | Speed | Heading |
|---|---|---|---|---|---|
| 2026-05-04 13:40 | 53.36556 | -2.27931 | 255 ft | 0 kts | 45° |
| 2026-05-04 14:06 | 53.36543 | -2.27953 | 255 ft | 4 kts | 45° |
| 2026-05-04 14:06 | 53.36524 | -2.27985 | 255 ft | 4 kts | 45° |
| 2026-05-04 14:06 | 53.36510 | -2.28011 | 255 ft | 4 kts | 73° |
| 2026-05-04 14:07 | 53.36515 | -2.28043 | 255 ft | 4 kts | 135° |
| 2026-05-04 14:07 | 53.36515 | -2.28044 | 255 ft | 4 kts | 135° |
| 2026-05-04 14:07 | 53.36506 | -2.28030 | 255 ft | 0 kts | 135° |
| 2026-05-04 14:17 | 53.36505 | -2.28027 | 255 ft | 2 kts | 135° |
| 2026-05-04 14:17 | 53.36478 | -2.27998 | 255 ft | 8 kts | 149° |
| 2026-05-04 14:17 | 53.36365 | -2.27977 | 255 ft | 11 kts | 223° |
| 2026-05-04 14:18 | 53.36306 | -2.28052 | 255 ft | 11 kts | 203° |
| 2026-05-04 14:18 | 53.36177 | -2.28004 | 255 ft | 12 kts | 137° |
| 2026-05-04 14:19 | 53.36070 | -2.27863 | 255 ft | 3 kts | 140° |
| 2026-05-04 14:19 | 53.36036 | -2.27817 | 255 ft | 9 kts | 141° |
| 2026-05-04 14:19 | 53.35969 | -2.27740 | 255 ft | 13 kts | 157° |
| 2026-05-04 14:19 | 53.35878 | -2.27728 | 255 ft | 13 kts | 182° |
| 2026-05-04 14:20 | 53.35808 | -2.27720 | 252 ft | 10 kts | 153° |
| 2026-05-04 14:20 | 53.35747 | -2.27651 | 250 ft | 13 kts | 158° |
| 2026-05-04 14:20 | 53.35667 | -2.27586 | 246 ft | 13 kts | 141° |
| 2026-05-04 14:21 | 53.35576 | -2.27462 | 245 ft | 0 kts | 142° |
| 2026-05-04 14:22 | 53.35573 | -2.27459 | 245 ft | 2 kts | 142° |
| 2026-05-04 14:22 | 53.35550 | -2.27429 | 246 ft | 8 kts | 142° |
| 2026-05-04 14:22 | 53.35486 | -2.27342 | 249 ft | 15 kts | 140° |
| 2026-05-04 14:23 | 53.35332 | -2.27191 | 244 ft | 13 kts | 184° |
| 2026-05-04 14:23 | 53.35228 | -2.27223 | 237 ft | 17 kts | 191° |
| 2026-05-04 14:23 | 53.35123 | -2.27258 | 229 ft | 15 kts | 191° |
| 2026-05-04 14:24 | 53.35033 | -2.27292 | 228 ft | 11 kts | 201° |
| 2026-05-04 14:24 | 53.34976 | -2.27389 | 225 ft | 20 kts | 231° |
| 2026-05-04 14:24 | 53.34697 | -2.27964 | 227 ft | 104 kts | 231° |
| 2026-05-04 14:24 | 53.34097 | -2.29204 | 313 ft | 159 kts | 230° |
| 2026-05-04 14:25 | 53.33397 | -2.30649 | 1100 ft | 160 kts | 231° |
| 2026-05-04 14:25 | 53.31947 | -2.33805 | 2321 ft | 192 kts | 238° |
| 2026-05-04 14:25 | 53.31388 | -2.35998 | 2816 ft | 219 kts | 256° |
| 2026-05-04 14:26 | 53.31254 | -2.38664 | 3404 ft | 244 kts | 276° |
| 2026-05-04 14:26 | 53.31618 | -2.41538 | 4233 ft | 258 kts | 284° |
| 2026-05-04 14:26 | 53.31931 | -2.44526 | 5275 ft | 265 kts | 273° |
| 2026-05-04 14:26 | 53.31783 | -2.47620 | 6338 ft | 270 kts | 258° |
| 2026-05-04 14:27 | 53.31255 | -2.50643 | 7352 ft | 273 kts | 252° |
| 2026-05-04 14:27 | 53.30681 | -2.53699 | 8360 ft | 277 kts | 253° |
| 2026-05-04 14:27 | 53.30108 | -2.56801 | 9367 ft | 281 kts | 254° |
| 2026-05-04 14:27 | 53.29450 | -2.59907 | 10320 ft | 289 kts | 248° |
| 2026-05-04 14:28 | 53.28504 | -2.63019 | 10708 ft | 313 kts | 236° |
| 2026-05-04 14:28 | 53.27040 | -2.65803 | 11425 ft | 324 kts | 222° |
| 2026-05-04 14:28 | 53.25217 | -2.68065 | 12314 ft | 329 kts | 215° |
| 2026-05-04 14:28 | 53.23315 | -2.70220 | 13241 ft | 332 kts | 215° |
| 2026-05-04 14:29 | 53.19468 | -2.74662 | 14852 ft | 341 kts | 215° |
| 2026-05-04 14:29 | 53.15534 | -2.79226 | 16387 ft | 348 kts | 214° |
| 2026-05-04 14:30 | 53.13404 | -2.81180 | 17090 ft | 353 kts | 199° |
| 2026-05-04 14:30 | 53.10979 | -2.81897 | 17823 ft | 358 kts | 180° |
| 2026-05-04 14:30 | 53.05953 | -2.81504 | 19203 ft | 365 kts | 176° |
| 2026-05-04 14:31 | 53.03404 | -2.81260 | 19829 ft | 370 kts | 176° |
| 2026-05-04 14:31 | 52.98204 | -2.80765 | 21099 ft | 378 kts | 175° |
| 2026-05-04 14:32 | 52.92910 | -2.80297 | 22488 ft | 384 kts | 175° |
| 2026-05-04 14:32 | 52.90227 | -2.80067 | 23127 ft | 388 kts | 175° |
| 2026-05-04 14:32 | 52.87554 | -2.79837 | 23729 ft | 392 kts | 175° |
| 2026-05-04 14:32 | 52.84817 | -2.79599 | 24248 ft | 396 kts | 174° |
| 2026-05-04 14:33 | 52.82054 | -2.79361 | 24758 ft | 400 kts | 174° |
| 2026-05-04 14:33 | 52.79223 | -2.79118 | 25260 ft | 403 kts | 174° |
| 2026-05-04 14:33 | 52.76412 | -2.78875 | 25749 ft | 407 kts | 174° |
| 2026-05-04 14:33 | 52.73609 | -2.78632 | 26220 ft | 411 kts | 174° |
| 2026-05-04 14:34 | 52.70746 | -2.78378 | 26734 ft | 413 kts | 174° |
| 2026-05-04 14:34 | 52.67866 | -2.78124 | 27242 ft | 415 kts | 174° |
| 2026-05-04 14:34 | 52.64975 | -2.77876 | 27720 ft | 419 kts | 174° |
| 2026-05-04 14:34 | 52.62052 | -2.77623 | 28195 ft | 422 kts | 174° |
| 2026-05-04 14:35 | 52.59108 | -2.77369 | 28656 ft | 426 kts | 174° |
| 2026-05-04 14:35 | 52.56137 | -2.77118 | 29106 ft | 429 kts | 174° |
| 2026-05-04 14:35 | 52.53145 | -2.76865 | 29547 ft | 433 kts | 173° |
| 2026-05-04 14:35 | 52.50118 | -2.76746 | 29981 ft | 438 kts | 179° |
| 2026-05-04 14:36 | 52.47065 | -2.77010 | 30451 ft | 439 kts | 181° |
| 2026-05-04 14:36 | 52.44011 | -2.77280 | 30940 ft | 439 kts | 181° |
| 2026-05-04 14:36 | 52.40956 | -2.77547 | 31339 ft | 441 kts | 181° |
| 2026-05-04 14:36 | 52.37888 | -2.77813 | 31705 ft | 443 kts | 181° |
| 2026-05-04 14:37 | 52.34804 | -2.78078 | 32159 ft | 443 kts | 181° |
| 2026-05-04 14:37 | 52.31733 | -2.78337 | 32657 ft | 442 kts | 181° |
| 2026-05-04 14:37 | 52.28667 | -2.78599 | 33151 ft | 441 kts | 181° |
| 2026-05-04 14:37 | 52.25601 | -2.78861 | 33645 ft | 440 kts | 181° |
| 2026-05-04 14:38 | 52.22549 | -2.79121 | 34197 ft | 438 kts | 181° |
| 2026-05-04 14:38 | 52.19518 | -2.79380 | 34660 ft | 435 kts | 181° |
| 2026-05-04 14:38 | 52.16497 | -2.79635 | 35060 ft | 435 kts | 181° |
| 2026-05-04 14:38 | 52.13478 | -2.79888 | 35419 ft | 434 kts | 181° |
| 2026-05-04 14:39 | 52.10457 | -2.80146 | 35770 ft | 434 kts | 182° |
| 2026-05-04 14:39 | 52.07442 | -2.80407 | 36121 ft | 434 kts | 182° |
| 2026-05-04 14:39 | 52.04428 | -2.80666 | 36460 ft | 434 kts | 182° |
| 2026-05-04 14:40 | 51.98444 | -2.81175 | 37010 ft | 433 kts | 182° |
| 2026-05-04 14:40 | 51.95457 | -2.81430 | 37051 ft | 428 kts | 182° |
| 2026-05-04 14:40 | 51.89532 | -2.81928 | 37053 ft | 425 kts | 182° |
| 2026-05-04 14:41 | 51.83637 | -2.82508 | 37055 ft | 425 kts | 185° |
| 2026-05-04 14:42 | 51.71934 | -2.85124 | 37055 ft | 423 kts | 187° |
| 2026-05-04 14:42 | 51.66103 | -2.86448 | 37054 ft | 423 kts | 186° |
| 2026-05-04 14:43 | 51.60274 | -2.87688 | 37047 ft | 423 kts | 186° |
| 2026-05-04 14:43 | 51.54477 | -2.89272 | 37045 ft | 424 kts | 195° |
| 2026-05-04 14:44 | 51.48928 | -2.92553 | 37024 ft | 425 kts | 199° |
| 2026-05-04 14:44 | 51.43384 | -2.95874 | 37011 ft | 426 kts | 199° |
| 2026-05-04 14:45 | 51.37832 | -2.99188 | 37009 ft | 426 kts | 199° |
| 2026-05-04 14:45 | 51.32279 | -3.02511 | 37008 ft | 426 kts | 199° |
| 2026-05-04 14:46 | 51.26719 | -3.05824 | 37010 ft | 426 kts | 199° |
| 2026-05-04 14:46 | 51.21159 | -3.09120 | 37004 ft | 426 kts | 199° |
| 2026-05-04 14:47 | 51.15596 | -3.12410 | 37007 ft | 426 kts | 200° |
| 2026-05-04 14:47 | 51.10036 | -3.15712 | 37012 ft | 426 kts | 199° |
| 2026-05-04 14:48 | 51.04479 | -3.18993 | 37010 ft | 426 kts | 199° |
| 2026-05-04 14:48 | 50.98917 | -3.22267 | 37006 ft | 426 kts | 199° |
| 2026-05-04 14:49 | 50.93354 | -3.25523 | 37013 ft | 426 kts | 199° |
| 2026-05-04 14:49 | 50.87797 | -3.28778 | 37018 ft | 426 kts | 199° |
| 2026-05-04 14:50 | 50.82232 | -3.32014 | 37019 ft | 426 kts | 199° |
| 2026-05-04 14:50 | 50.76661 | -3.35249 | 37019 ft | 426 kts | 199° |
| 2026-05-04 14:51 | 50.71098 | -3.38475 | 37023 ft | 426 kts | 199° |
| 2026-05-04 14:51 | 50.65534 | -3.41705 | 37022 ft | 426 kts | 199° |
| 2026-05-04 14:52 | 50.59974 | -3.44914 | 37001 ft | 426 kts | 199° |
| 2026-05-04 14:52 | 50.54265 | -3.46928 | 37009 ft | 424 kts | 185° |
| 2026-05-04 14:53 | 50.48369 | -3.47920 | 37008 ft | 423 kts | 186° |
| 2026-05-04 14:53 | 50.42516 | -3.48918 | 37003 ft | 423 kts | 186° |
| 2026-05-04 14:54 | 50.36691 | -3.49743 | 37010 ft | 423 kts | 182° |
| 2026-05-04 14:54 | 50.30816 | -3.50033 | 37009 ft | 422 kts | 180° |
| 2026-05-04 14:55 | 50.24939 | -3.50201 | 37005 ft | 422 kts | 181° |
| 2026-05-04 14:55 | 50.19070 | -3.50466 | 37003 ft | 422 kts | 181° |
| 2026-05-04 14:56 | 50.13203 | -3.50804 | 37011 ft | 422 kts | 182° |
| 2026-05-04 14:56 | 50.07336 | -3.51149 | 37010 ft | 422 kts | 182° |
| 2026-05-04 14:57 | 50.01476 | -3.51466 | 37007 ft | 421 kts | 182° |
| 2026-05-04 14:57 | 49.95619 | -3.51777 | 37005 ft | 421 kts | 182° |
| 2026-05-04 14:58 | 49.89759 | -3.52091 | 37006 ft | 421 kts | 182° |
| 2026-05-04 14:58 | 49.84896 | -3.52345 | 37008 ft | 421 kts | 182° |
| 2026-05-04 14:59 | 49.78066 | -3.52722 | 37007 ft | 420 kts | 182° |
| 2026-05-04 14:59 | 49.72259 | -3.53602 | 37000 ft | 420 kts | 194° |
| 2026-05-04 15:00 | 49.69449 | -3.54837 | 37000 ft | 420 kts | 195° |
| 2026-05-04 15:00 | 49.63834 | -3.57333 | 37009 ft | 419 kts | 195° |
| 2026-05-04 15:01 | 49.55424 | -3.61028 | 37011 ft | 419 kts | 195° |
| 2026-05-04 15:01 | 49.49811 | -3.63486 | 36998 ft | 420 kts | 195° |
| 2026-05-04 15:02 | 49.45139 | -3.65525 | 36998 ft | 420 kts | 195° |
| 2026-05-04 15:02 | 49.39527 | -3.67978 | 37000 ft | 420 kts | 195° |
| 2026-05-04 15:03 | 49.33910 | -3.70436 | 36997 ft | 419 kts | 195° |
| 2026-05-04 15:03 | 49.28293 | -3.72879 | 36996 ft | 419 kts | 195° |
| 2026-05-04 15:04 | 49.22680 | -3.75310 | 36998 ft | 419 kts | 195° |
| 2026-05-04 15:04 | 49.17061 | -3.77729 | 36995 ft | 419 kts | 195° |
| 2026-05-04 15:05 | 49.11446 | -3.80150 | 36992 ft | 419 kts | 195° |
| 2026-05-04 15:05 | 49.05833 | -3.82576 | 36993 ft | 419 kts | 195° |
| 2026-05-04 15:06 | 49.00211 | -3.84998 | 36999 ft | 419 kts | 195° |
| 2026-05-04 15:07 | 48.91789 | -3.88606 | 37000 ft | 419 kts | 195° |
| 2026-05-04 15:07 | 48.86171 | -3.91011 | 37000 ft | 419 kts | 195° |
| 2026-05-04 15:08 | 48.80559 | -3.93408 | 37006 ft | 419 kts | 195° |
| 2026-05-04 15:08 | 48.74936 | -3.95801 | 36996 ft | 420 kts | 195° |
| 2026-05-04 15:09 | 48.69348 | -3.98167 | 36995 ft | 420 kts | 195° |
| 2026-05-04 15:09 | 48.63712 | -4.00550 | 36997 ft | 421 kts | 195° |
| 2026-05-04 15:10 | 48.55258 | -4.04122 | 36993 ft | 421 kts | 195° |
| 2026-05-04 15:11 | 48.46813 | -4.07678 | 36993 ft | 420 kts | 195° |
| 2026-05-04 15:11 | 48.41180 | -4.10041 | 36993 ft | 420 kts | 195° |
| 2026-05-04 15:12 | 48.35552 | -4.12396 | 36995 ft | 420 kts | 195° |
| 2026-05-04 15:12 | 48.29919 | -4.14737 | 36994 ft | 420 kts | 195° |
| 2026-05-04 15:13 | 48.24290 | -4.17080 | 37002 ft | 420 kts | 195° |
| 2026-05-04 15:13 | 48.18657 | -4.19426 | 36999 ft | 419 kts | 195° |
| 2026-05-04 15:14 | 48.13031 | -4.21761 | 36998 ft | 419 kts | 195° |
| 2026-05-04 15:14 | 48.07404 | -4.24089 | 37001 ft | 420 kts | 195° |
| 2026-05-04 15:15 | 48.01775 | -4.26419 | 37012 ft | 420 kts | 195° |
| 2026-05-04 15:15 | 47.96141 | -4.28737 | 37004 ft | 420 kts | 195° |
| 2026-05-04 15:16 | 47.87673 | -4.32202 | 37002 ft | 420 kts | 195° |
| 2026-05-04 15:17 | 47.79257 | -4.35654 | 36988 ft | 420 kts | 195° |
| 2026-05-04 15:17 | 47.70759 | -4.39112 | 36990 ft | 420 kts | 195° |
| 2026-05-04 15:18 | 47.65116 | -4.41411 | 36992 ft | 420 kts | 195° |
| 2026-05-04 15:19 | 47.56695 | -4.44832 | 36992 ft | 420 kts | 195° |
| 2026-05-04 15:19 | 47.48232 | -4.48252 | 36995 ft | 420 kts | 195° |
| 2026-05-04 15:20 | 47.42584 | -4.50525 | 36998 ft | 420 kts | 195° |
| 2026-05-04 15:20 | 47.36941 | -4.52797 | 36995 ft | 421 kts | 195° |
| 2026-05-04 15:21 | 47.31292 | -4.55067 | 36998 ft | 421 kts | 195° |
| 2026-05-04 15:22 | 47.22820 | -4.58464 | 36993 ft | 421 kts | 194° |
| 2026-05-04 15:22 | 47.14353 | -4.61828 | 36998 ft | 420 kts | 194° |
| 2026-05-04 15:23 | 47.08707 | -4.64086 | 37000 ft | 420 kts | 195° |
| 2026-05-04 15:23 | 47.03152 | -4.66768 | 37000 ft | 420 kts | 199° |
| 2026-05-04 15:24 | 46.92180 | -4.72666 | 36997 ft | 420 kts | 199° |
| 2026-05-04 15:25 | 46.86667 | -4.75495 | 36994 ft | 420 kts | 199° |
| 2026-05-04 15:26 | 46.78395 | -4.79683 | 36995 ft | 419 kts | 199° |
| 2026-05-04 15:26 | 46.70130 | -4.83880 | 36999 ft | 419 kts | 199° |
| 2026-05-04 15:27 | 46.61878 | -4.88077 | 37008 ft | 419 kts | 199° |
| 2026-05-04 15:28 | 46.53650 | -4.92226 | 36999 ft | 419 kts | 199° |
| 2026-05-04 15:29 | 46.45384 | -4.96391 | 36994 ft | 419 kts | 199° |
| 2026-05-04 15:30 | 46.26096 | -5.06065 | 36995 ft | 419 kts | 199° |
| 2026-05-04 15:31 | 46.17821 | -5.10184 | 36990 ft | 419 kts | 199° |
| 2026-05-04 15:32 | 46.04039 | -5.17026 | 36989 ft | 419 kts | 199° |
| 2026-05-04 15:34 | 45.90233 | -5.23847 | 36985 ft | 420 kts | 199° |
| 2026-05-04 15:34 | 45.81947 | -5.27920 | 36975 ft | 420 kts | 199° |
| 2026-05-04 15:35 | 45.73691 | -5.31963 | 36982 ft | 420 kts | 199° |
| 2026-05-04 15:36 | 45.65400 | -5.36015 | 36990 ft | 420 kts | 199° |
| 2026-05-04 15:36 | 45.59866 | -5.38712 | 36991 ft | 420 kts | 199° |
| 2026-05-04 15:37 | 45.54339 | -5.41401 | 36991 ft | 419 kts | 199° |
| 2026-05-04 15:37 | 45.48818 | -5.44083 | 36994 ft | 419 kts | 199° |
| 2026-05-04 15:38 | 45.43290 | -5.46754 | 36986 ft | 420 kts | 199° |
| 2026-05-04 15:38 | 45.37763 | -5.49422 | 36988 ft | 420 kts | 199° |
| 2026-05-04 15:39 | 45.32230 | -5.52095 | 36992 ft | 420 kts | 199° |
| 2026-05-04 15:40 | 45.23934 | -5.56090 | 36990 ft | 420 kts | 199° |
| 2026-05-04 15:40 | 45.18398 | -5.58745 | 36993 ft | 420 kts | 199° |
| 2026-05-04 15:41 | 45.12867 | -5.61392 | 36991 ft | 420 kts | 199° |
| 2026-05-04 15:41 | 45.07331 | -5.64031 | 36991 ft | 420 kts | 199° |
| 2026-05-04 15:42 | 45.01800 | -5.66664 | 36986 ft | 419 kts | 199° |
| 2026-05-04 15:42 | 44.96268 | -5.69302 | 36993 ft | 419 kts | 199° |
| 2026-05-04 15:43 | 44.90741 | -5.71936 | 37000 ft | 419 kts | 199° |
| 2026-05-04 15:43 | 44.85204 | -5.74556 | 36996 ft | 420 kts | 200° |
| 2026-05-04 15:44 | 44.79655 | -5.77168 | 36991 ft | 420 kts | 200° |
| 2026-05-04 15:44 | 44.74148 | -5.79761 | 36994 ft | 420 kts | 200° |
| 2026-05-04 15:45 | 44.68607 | -5.82376 | 36993 ft | 420 kts | 200° |
| 2026-05-04 15:45 | 44.63444 | -5.86085 | 36993 ft | 417 kts | 217° |
| 2026-05-04 15:46 | 44.58713 | -5.90814 | 36994 ft | 417 kts | 216° |
| 2026-05-04 15:46 | 44.53968 | -5.95510 | 36996 ft | 418 kts | 216° |
| 2026-05-04 15:47 | 44.49209 | -6.00194 | 37003 ft | 418 kts | 216° |
| 2026-05-04 15:47 | 44.44456 | -6.04882 | 37000 ft | 418 kts | 216° |
| 2026-05-04 15:48 | 44.39698 | -6.09565 | 37013 ft | 418 kts | 216° |
| 2026-05-04 15:48 | 44.32555 | -6.16567 | 37003 ft | 418 kts | 216° |
| 2026-05-04 15:49 | 44.27790 | -6.21238 | 37000 ft | 418 kts | 216° |
| 2026-05-04 15:49 | 44.23027 | -6.25897 | 36991 ft | 418 kts | 216° |
| 2026-05-04 15:50 | 44.18257 | -6.30556 | 37003 ft | 419 kts | 216° |
| 2026-05-04 15:50 | 44.14292 | -6.34420 | 37006 ft | 419 kts | 216° |
| 2026-05-04 15:51 | 44.08743 | -6.39806 | 37006 ft | 418 kts | 216° |
| 2026-05-04 15:51 | 44.03963 | -6.44431 | 36999 ft | 418 kts | 216° |
| 2026-05-04 15:52 | 43.99964 | -6.48300 | 37007 ft | 418 kts | 217° |
| 2026-05-04 15:52 | 43.95188 | -6.52919 | 37012 ft | 418 kts | 217° |
| 2026-05-04 15:53 | 43.90417 | -6.57530 | 37011 ft | 418 kts | 217° |
| 2026-05-04 15:53 | 43.85639 | -6.62135 | 37014 ft | 418 kts | 217° |
| 2026-05-04 15:54 | 43.80858 | -6.66722 | 37010 ft | 418 kts | 217° |
| 2026-05-04 15:54 | 43.76074 | -6.71303 | 37023 ft | 418 kts | 217° |
| 2026-05-04 15:55 | 43.71325 | -6.75840 | 37027 ft | 418 kts | 217° |
| 2026-05-04 15:55 | 43.66543 | -6.80398 | 37040 ft | 418 kts | 217° |
| 2026-05-04 15:56 | 43.61761 | -6.84957 | 37034 ft | 417 kts | 217° |
| 2026-05-04 15:56 | 43.56980 | -6.89507 | 37030 ft | 417 kts | 217° |
| 2026-05-04 15:57 | 43.52197 | -6.94046 | 37043 ft | 417 kts | 217° |
| 2026-05-04 15:57 | 43.47421 | -6.98575 | 37035 ft | 417 kts | 217° |
| 2026-05-04 15:58 | 43.42641 | -7.03088 | 37040 ft | 416 kts | 217° |
| 2026-05-04 15:58 | 43.37864 | -7.07588 | 37026 ft | 416 kts | 217° |
| 2026-05-04 15:59 | 43.33092 | -7.12077 | 37041 ft | 416 kts | 217° |
| 2026-05-04 15:59 | 43.28320 | -7.16569 | 37041 ft | 415 kts | 217° |
| 2026-05-04 16:00 | 43.23554 | -7.21044 | 37041 ft | 415 kts | 217° |
| 2026-05-04 16:00 | 43.18781 | -7.25516 | 37031 ft | 415 kts | 217° |
| 2026-05-04 16:01 | 43.14005 | -7.29981 | 37038 ft | 416 kts | 217° |
| 2026-05-04 16:01 | 43.09255 | -7.34408 | 37043 ft | 415 kts | 217° |
| 2026-05-04 16:02 | 43.04479 | -7.38856 | 37049 ft | 416 kts | 217° |
| 2026-05-04 16:03 | 42.97306 | -7.45523 | 37039 ft | 416 kts | 217° |
| 2026-05-04 16:03 | 42.92522 | -7.49945 | 37047 ft | 415 kts | 217° |
| 2026-05-04 16:04 | 42.87741 | -7.54357 | 37055 ft | 415 kts | 217° |
| 2026-05-04 16:04 | 42.80576 | -7.60985 | 37064 ft | 415 kts | 217° |
| 2026-05-04 16:05 | 42.75790 | -7.65389 | 37038 ft | 415 kts | 218° |
| 2026-05-04 16:06 | 42.68615 | -7.71960 | 37056 ft | 414 kts | 218° |
| 2026-05-04 16:07 | 42.58546 | -7.79547 | 36960 ft | 424 kts | 200° |
| 2026-05-04 16:07 | 42.50038 | -7.82730 | 36211 ft | 422 kts | 199° |
| 2026-05-04 16:08 | 42.47207 | -7.83781 | 35978 ft | 422 kts | 200° |
| 2026-05-04 16:08 | 42.38790 | -7.86924 | 34658 ft | 415 kts | 200° |
| 2026-05-04 16:09 | 42.33257 | -7.88984 | 33563 ft | 410 kts | 200° |
| 2026-05-04 16:09 | 42.27854 | -7.90995 | 32602 ft | 401 kts | 200° |
| 2026-05-04 16:10 | 42.22531 | -7.92977 | 31639 ft | 392 kts | 201° |
| 2026-05-04 16:11 | 42.14767 | -7.95854 | 30258 ft | 379 kts | 201° |
| 2026-05-04 16:11 | 42.12232 | -7.96787 | 29728 ft | 375 kts | 202° |
| 2026-05-04 16:12 | 42.04892 | -7.99497 | 28533 ft | 357 kts | 202° |
| 2026-05-04 16:12 | 41.97828 | -8.02108 | 27338 ft | 345 kts | 202° |
| 2026-05-04 16:13 | 41.93263 | -8.03788 | 26547 ft | 336 kts | 202° |
| 2026-05-04 16:13 | 41.88805 | -8.05422 | 25755 ft | 328 kts | 202° |